createdAt,value
2022-08-27T00:01:22.365Z,95760.41
2022-08-27T00:03:49.831Z,95768.56
2022-08-27T00:06:19.011Z,95754.97
2022-08-27T00:08:48.091Z,95755.75
2022-08-27T00:11:17.601Z,95761.41
2022-08-27T00:13:45.714Z,95756.88
2022-08-27T00:16:13.609Z,95760.31
2022-08-27T00:18:41.929Z,95765.22
2022-08-27T00:21:09.748Z,95759.75
2022-08-27T00:23:37.310Z,95769.53
2022-08-27T00:26:06.369Z,95767.97
2022-08-27T00:28:34.190Z,95771.09
2022-08-27T00:31:01.549Z,95774.19
2022-08-27T00:33:29.068Z,95773.41
2022-08-27T00:35:56.808Z,95769.63
2022-08-27T00:38:24.030Z,95768.22
2022-08-27T00:40:51.848Z,95772.00
2022-08-27T00:43:27.857Z,95767.91
2022-08-27T00:46:02.728Z,95773.09
2022-08-27T00:48:35.416Z,95777.78
2022-08-27T00:51:03.228Z,95766.00
2022-08-27T00:53:33.544Z,95766.75
2022-08-27T00:56:07.148Z,95774.34
2022-08-27T00:58:47.729Z,95764.88
2022-08-27T01:01:22.344Z,95767.22
2022-08-27T01:04:01.209Z,95764.09
2022-08-27T01:06:34.688Z,95767.91
2022-08-27T01:09:08.188Z,95761.41
2022-08-27T01:11:35.394Z,95773.88
2022-08-27T01:14:04.309Z,95773.47
2022-08-27T01:16:38.339Z,95777.06
2022-08-27T01:19:14.596Z,95772.53
2022-08-27T01:21:44.489Z,95781.50
2022-08-27T01:24:35.873Z,95783.84
2022-08-27T01:27:05.568Z,95781.84
2022-08-27T01:29:36.568Z,95792.69
2022-08-27T01:32:13.509Z,95786.47
2022-08-27T01:34:41.149Z,95784.09
2022-08-27T01:37:08.890Z,95793.22
2022-08-27T01:39:39.348Z,95788.97
2022-08-27T01:42:14.469Z,95787.75
2022-08-27T01:44:49.429Z,95792.63
2022-08-27T01:47:18.645Z,95786.06
2022-08-27T01:49:46.168Z,95779.94
2022-08-27T01:52:15.288Z,95775.56
2022-08-27T01:54:42.388Z,95777.97
2022-08-27T01:57:10.148Z,95772.97
2022-08-27T01:59:39.580Z,95774.84
2022-08-27T02:02:11.869Z,95772.84
2022-08-27T02:04:39.248Z,95774.72
2022-08-27T02:07:06.508Z,95772.06
2022-08-27T02:09:33.869Z,95769.06
2022-08-27T02:12:01.028Z,95774.56
2022-08-27T02:14:29.309Z,95769.25
2022-08-27T02:16:56.989Z,95768.47
2022-08-27T02:19:24.363Z,95762.50
2022-08-27T02:21:51.630Z,95773.94
2022-08-27T02:24:18.792Z,95770.03
2022-08-27T02:26:46.348Z,95766.13
2022-08-27T02:29:13.396Z,95768.81
2022-08-27T02:31:42.325Z,95763.47
2022-08-27T02:34:10.548Z,95771.47
2022-08-27T02:36:37.848Z,95768.81
2022-08-27T02:39:07.109Z,95772.56
2022-08-27T02:41:35.317Z,95769.91
2022-08-27T02:44:10.726Z,95783.25
2022-08-27T02:46:39.379Z,95774.47
2022-08-27T02:49:06.610Z,95772.09
2022-08-27T02:51:34.508Z,95776.66
2022-08-27T02:54:03.048Z,95774.78
2022-08-27T02:56:30.529Z,95770.53
2022-08-27T02:58:59.249Z,95770.53
2022-08-27T03:01:26.503Z,95779.00
2022-08-27T03:03:53.788Z,95774.00
2022-08-27T03:06:20.929Z,95777.72
2022-08-27T03:08:52.854Z,95780.28
2022-08-27T03:11:23.752Z,95779.50
2022-08-27T03:13:51.188Z,95778.56
2022-08-27T03:16:18.762Z,95778.44
2022-08-27T03:18:45.908Z,95775.94
2022-08-27T03:21:26.869Z,95775.50
2022-08-27T03:23:54.389Z,95781.94
2022-08-27T03:26:21.671Z,95781.16
2022-08-27T03:28:49.189Z,95781.47
2022-08-27T03:31:26.880Z,95773.47
2022-08-27T03:33:58.468Z,95776.78
2022-08-27T03:36:28.328Z,95770.66
2022-08-27T03:38:55.968Z,95772.72
2022-08-27T03:41:23.668Z,95766.47
2022-08-27T03:44:11.748Z,95764.59
2022-08-27T03:46:45.684Z,95768.34
2022-08-27T03:49:13.373Z,95772.78
2022-08-27T03:51:40.589Z,95768.53
2022-08-27T03:54:07.591Z,95762.91
2022-08-27T03:56:39.528Z,95757.22
2022-08-27T03:59:07.490Z,95750.16
2022-08-27T04:01:34.721Z,95758.94
2022-08-27T04:04:01.908Z,95756.59
2022-08-27T04:06:28.888Z,95756.44
2022-08-27T04:08:56.828Z,95755.22
2022-08-27T04:11:24.280Z,95757.09
2022-08-27T04:13:51.729Z,95762.13
2022-08-27T04:16:19.015Z,95767.56
2022-08-27T04:18:46.148Z,95765.38
2022-08-27T04:21:14.764Z,95774.59
2022-08-27T04:23:43.046Z,95762.41
2022-08-27T04:26:11.653Z,95761.63
2022-08-27T04:28:39.265Z,95762.25
2022-08-27T04:31:11.877Z,95762.44
2022-08-27T04:33:51.373Z,95769.50
2022-08-27T04:36:19.742Z,95771.72
2022-08-27T04:38:47.076Z,95761.22
2022-08-27T04:41:20.171Z,95770.31
2022-08-27T04:43:56.520Z,95780.53
2022-08-27T04:46:29.888Z,95773.94
2022-08-27T04:48:59.166Z,95784.13
2022-08-27T04:51:27.514Z,95782.25
2022-08-27T04:53:55.654Z,95780.69
2022-08-27T04:56:23.893Z,95795.41
2022-08-27T04:58:52.224Z,95788.34
2022-08-27T05:01:24.895Z,95786.47
2022-08-27T05:03:53.004Z,95786.75
2022-08-27T05:06:20.520Z,95785.13
2022-08-27T05:08:50.312Z,95785.41
2022-08-27T05:11:19.710Z,95784.72
2022-08-27T05:13:47.860Z,95786.56
2022-08-27T05:16:21.815Z,95794.84
2022-08-27T05:18:51.101Z,95789.50
2022-08-27T05:21:23.912Z,95784.56
2022-08-27T05:23:52.004Z,95791.94
2022-08-27T05:26:19.251Z,95791.72
2022-08-27T05:28:46.411Z,95794.50
2022-08-27T05:31:15.011Z,95779.25
2022-08-27T05:33:43.331Z,95788.09
2022-08-27T05:36:23.001Z,95789.03
2022-08-27T05:38:50.581Z,95793.59
2022-08-27T05:41:25.801Z,95795.78
2022-08-27T05:44:24.055Z,95786.13
2022-08-27T05:46:51.652Z,95800.19
2022-08-27T05:52:12.319Z,95796.38
2022-08-27T05:54:39.931Z,95799.63
2022-08-27T05:57:07.457Z,95802.75
2022-08-27T05:59:53.678Z,95804.31
2022-08-27T06:02:20.879Z,95797.53
2022-08-27T06:04:48.054Z,95798.09
2022-08-27T06:07:15.742Z,95800.13
2022-08-27T06:09:43.653Z,95807.72
2022-08-27T06:12:10.944Z,95808.28
2022-08-27T06:14:38.657Z,95802.03
2022-08-27T06:17:06.677Z,95809.19
2022-08-27T06:19:35.033Z,95810.53
2022-08-27T06:22:09.966Z,95814.19
2022-08-27T06:24:39.806Z,95813.31
2022-08-27T06:27:07.125Z,95811.97
2022-08-27T06:29:35.385Z,95816.13
2022-08-27T06:32:02.515Z,95814.78
2022-08-27T06:34:29.537Z,95814.19
2022-08-27T06:36:56.676Z,95809.19
2022-08-27T06:39:23.675Z,95812.72
2022-08-27T06:41:50.773Z,95817.63
2022-08-27T06:44:22.365Z,95816.16
2022-08-27T06:46:49.546Z,95817.91
2022-08-27T06:49:16.766Z,95817.78
2022-08-27T06:51:47.076Z,95815.00
2022-08-27T06:54:15.618Z,95816.50
2022-08-27T06:56:44.802Z,95818.41
2022-08-27T06:59:15.225Z,95818.31
2022-08-27T07:01:46.847Z,95819.56
2022-08-27T07:04:19.676Z,95822.53
2022-08-27T07:06:47.337Z,95818.50
2022-08-27T07:09:14.570Z,95818.78
2022-08-27T07:11:41.683Z,95824.44
2022-08-27T07:14:09.055Z,95824.28
2022-08-27T07:16:37.207Z,95809.72
2022-08-27T07:19:07.317Z,95816.63
2022-08-27T07:21:35.375Z,95813.00
2022-08-27T07:24:07.957Z,95819.59
2022-08-27T07:26:38.795Z,95817.19
2022-08-27T07:29:08.466Z,95823.22
2022-08-27T07:31:38.965Z,95829.38
2022-08-27T07:34:06.826Z,95828.16
2022-08-27T07:36:37.005Z,95825.97
2022-08-27T07:39:04.334Z,95837.91
2022-08-27T07:41:32.089Z,95826.13
2022-08-27T07:44:20.918Z,95833.47
2022-08-27T07:46:54.908Z,95833.25
2022-08-27T07:49:22.666Z,95836.19
2022-08-27T07:51:51.165Z,95834.88
2022-08-27T07:54:18.747Z,95838.09
2022-08-27T07:56:54.824Z,95835.56
2022-08-27T07:59:26.097Z,95836.56
2022-08-27T08:01:56.318Z,95833.88
2022-08-27T08:04:24.002Z,95839.72
2022-08-27T08:06:51.917Z,95838.38
2022-08-27T08:09:18.957Z,95844.34
2022-08-27T08:11:46.295Z,95840.28
2022-08-27T08:14:13.386Z,95844.19
2022-08-27T08:16:40.517Z,95832.41
2022-08-27T08:19:08.065Z,95837.56
2022-08-27T08:21:35.604Z,95841.44
2022-08-27T08:24:02.776Z,95836.91
2022-08-27T08:26:29.857Z,95838.94
2022-08-27T08:28:56.896Z,95842.56
2022-08-27T08:31:24.469Z,95840.97
2022-08-27T08:33:52.447Z,95845.06
2022-08-27T08:36:19.355Z,95842.66
2022-08-27T08:38:47.648Z,95852.09
2022-08-27T08:42:05.706Z,95856.78
2022-08-27T08:44:46.238Z,95854.91
2022-08-27T08:47:22.411Z,95851.72
2022-08-27T08:50:08.439Z,95863.72
2022-08-27T08:52:35.697Z,95857.72
2022-08-27T08:55:30.645Z,95855.19
2022-08-27T08:58:05.575Z,95856.16
2022-08-27T09:00:32.805Z,95851.22
2022-08-27T09:02:59.896Z,95850.97
2022-08-27T09:05:27.830Z,95858.81
2022-08-27T09:08:34.037Z,95858.25
2022-08-27T09:11:29.036Z,95851.69
2022-08-27T09:13:58.796Z,95848.78
2022-08-27T09:16:26.496Z,95850.75
2022-08-27T09:18:54.446Z,95843.97
2022-08-27T09:21:29.486Z,95837.00
2022-08-27T09:24:10.834Z,95838.38
2022-08-27T09:26:41.125Z,95837.34
2022-08-27T09:29:16.830Z,95835.97
2022-08-27T09:31:48.705Z,95831.69
2022-08-27T09:34:16.135Z,95833.88
2022-08-27T09:37:08.292Z,95833.22
2022-08-27T09:40:27.738Z,95832.19
2022-08-27T09:42:59.005Z,95839.97
2022-08-27T09:45:30.142Z,95836.47
2022-08-27T09:48:10.426Z,95830.78
2022-08-27T09:50:53.236Z,95827.41
2022-08-27T09:53:37.757Z,95828.19
2022-08-27T09:56:09.102Z,95825.97
2022-08-27T09:58:45.422Z,95822.09
2022-08-27T10:01:34.850Z,95819.03
2022-08-27T10:04:13.142Z,95816.75
2022-08-27T10:06:49.865Z,95822.94
2022-08-27T10:09:30.437Z,95826.00
2022-08-27T10:12:06.645Z,95822.88
2022-08-27T10:14:49.576Z,95814.84
2022-08-27T10:17:32.584Z,95808.63
2022-08-27T10:20:13.318Z,95798.97
2022-08-27T10:22:56.665Z,95804.38
2022-08-27T10:25:47.474Z,95800.50
2022-08-27T10:28:30.166Z,95795.09
2022-08-27T10:31:13.029Z,95787.72
2022-08-27T10:33:59.475Z,95787.34
2022-08-27T10:36:47.315Z,95781.91
2022-08-27T10:39:26.425Z,95778.00
2022-08-27T10:42:10.973Z,95773.31
2022-08-27T10:44:51.810Z,95768.69
2022-08-27T10:48:02.295Z,95763.22
2022-08-27T10:50:48.046Z,95756.28
2022-08-27T10:53:51.381Z,95757.81
2022-08-27T10:56:40.012Z,95765.59
2022-08-27T10:59:37.876Z,95767.09
2022-08-27T11:13:35.326Z,95785.66
2022-08-27T11:16:13.874Z,95787.22
2022-08-27T11:19:10.688Z,95795.38
2022-08-27T11:21:47.045Z,95794.25
2022-08-27T11:24:35.965Z,95800.44
2022-08-27T11:27:07.245Z,95809.03
2022-08-27T11:29:52.326Z,95806.69
2022-08-27T11:32:54.293Z,95814.44
2022-08-27T11:36:00.175Z,95798.59
2022-08-27T11:38:55.361Z,95805.13
2022-08-27T11:41:55.594Z,95805.09
2022-08-27T11:44:25.765Z,95796.16
2022-08-27T11:46:58.698Z,95796.56
2022-08-27T11:49:28.464Z,95788.84
2022-08-27T11:52:05.275Z,95782.16
2022-08-27T11:54:45.664Z,95767.44
2022-08-27T11:57:42.996Z,95765.53
2022-08-27T12:00:28.046Z,95765.91
2022-08-27T12:03:02.973Z,95768.31
2022-08-27T12:05:40.447Z,95767.97
2022-08-27T12:08:13.292Z,95767.22
2022-08-27T12:10:58.754Z,95766.84
2022-08-27T12:14:03.864Z,95757.13
2022-08-27T12:16:55.465Z,95763.72
2022-08-27T12:19:50.040Z,95755.56
2022-08-27T12:22:31.885Z,95759.88
2022-08-27T12:24:59.965Z,95762.56
2022-08-27T12:27:32.620Z,95774.53
2022-08-27T12:30:04.402Z,95789.81
2022-08-27T12:32:40.976Z,95791.03
2022-08-27T12:35:21.398Z,95794.88
2022-08-27T12:38:11.745Z,95803.91
2022-08-27T12:40:46.556Z,95819.16
2022-08-27T12:43:28.613Z,95829.22
2022-08-27T12:46:03.803Z,95836.28
2022-08-27T12:48:37.646Z,95844.75
2022-08-27T12:51:09.235Z,95832.59
2022-08-27T12:53:45.588Z,95800.25
2022-08-27T12:56:31.306Z,95815.38
2022-08-27T12:59:13.813Z,95832.66
2022-08-27T13:02:02.053Z,95821.59
2022-08-27T13:04:34.028Z,95817.72
2022-08-27T13:07:01.063Z,95801.50
2022-08-27T13:09:32.153Z,95776.56
2022-08-27T13:12:00.685Z,95770.25
2022-08-27T13:14:35.492Z,95766.59
2022-08-27T13:17:18.753Z,95784.09
2022-08-27T13:19:55.875Z,95802.75
2022-08-27T13:22:43.786Z,95822.72
2022-08-27T13:25:21.896Z,95837.66
2022-08-27T13:28:19.355Z,95842.09
2022-08-27T13:30:48.174Z,95824.03
2022-08-27T13:33:22.087Z,95825.44
2022-08-27T13:35:49.495Z,95830.91
2022-08-27T13:38:26.034Z,95829.97
2022-08-27T13:41:00.370Z,95827.28
2022-08-27T13:43:37.307Z,95828.88
2022-08-27T13:46:18.183Z,95823.53
2022-08-27T13:48:49.619Z,95820.06
2022-08-27T13:51:24.193Z,95815.72
2022-08-27T13:54:11.639Z,95826.44
2022-08-27T13:56:42.607Z,95829.63
2022-08-27T13:59:32.366Z,95817.13
2022-08-27T14:02:11.325Z,95813.16
2022-08-27T14:04:47.996Z,95802.88
2022-08-27T14:07:23.965Z,95803.75
2022-08-27T14:10:02.796Z,95808.66
2022-08-27T14:12:33.974Z,95807.75
2022-08-27T14:15:19.015Z,95804.19
2022-08-27T14:17:47.147Z,95788.00
2022-08-27T14:20:16.028Z,95786.13
2022-08-27T14:22:44.045Z,95797.34
2022-08-27T14:25:12.266Z,95800.19
2022-08-27T14:27:40.075Z,95795.63
2022-08-27T14:30:15.530Z,95791.56
2022-08-27T14:32:42.545Z,95793.94
2022-08-27T14:35:11.111Z,95798.38
2022-08-27T14:37:41.359Z,95800.47
2022-08-27T14:40:11.815Z,95806.38
2022-08-27T14:42:39.347Z,95805.13
2022-08-27T14:45:07.776Z,95803.03
2022-08-27T14:47:38.044Z,95807.84
2022-08-27T14:50:08.381Z,95811.31
2022-08-27T14:52:35.925Z,95827.19
2022-08-27T14:55:03.194Z,95828.00
2022-08-27T14:57:30.193Z,95823.59
2022-08-27T14:59:57.196Z,95823.88
2022-08-27T15:02:24.285Z,95815.44
2022-08-27T15:04:51.429Z,95818.09
2022-08-27T15:07:20.115Z,95805.59
2022-08-27T15:09:51.846Z,95800.38
2022-08-27T15:12:25.971Z,95802.16
2022-08-27T15:14:54.436Z,95795.56
2022-08-27T15:17:34.667Z,95796.34
2022-08-27T15:20:05.257Z,95814.56
2022-08-27T15:22:34.536Z,95829.16
2022-08-27T15:25:03.245Z,95835.34
2022-08-27T15:27:38.496Z,95832.09
2022-08-27T15:30:11.526Z,95829.53
2022-08-27T15:32:42.643Z,95819.78
2022-08-27T15:35:14.169Z,95809.22
2022-08-27T15:37:43.083Z,95804.34
2022-08-27T15:40:12.413Z,95798.81
2022-08-27T15:42:39.615Z,95799.94
2022-08-27T15:45:07.456Z,95794.91
2022-08-27T15:47:34.805Z,95796.34
2022-08-27T15:50:02.375Z,95806.91
2022-08-27T15:52:40.939Z,95813.81
2022-08-27T15:55:31.291Z,95831.84
2022-08-27T15:58:00.166Z,95849.38
2022-08-27T16:00:29.215Z,95859.84
2022-08-27T16:02:57.439Z,95862.78
2022-08-27T16:05:26.176Z,95875.31
2022-08-27T16:07:53.247Z,95893.75
2022-08-27T16:10:20.316Z,95897.00
2022-08-27T16:12:47.563Z,95907.97
2022-08-27T16:15:14.796Z,95921.44
2022-08-27T16:17:42.913Z,95924.94
2022-08-27T16:20:10.865Z,95939.81
2022-08-27T16:22:37.928Z,95951.72
2022-08-27T16:25:07.367Z,95956.13
2022-08-27T16:27:35.266Z,95963.34
2022-08-27T16:30:02.175Z,95967.53
2022-08-27T16:32:31.255Z,95968.03
2022-08-27T16:34:58.254Z,95954.88
2022-08-27T16:37:25.650Z,95951.25
2022-08-27T16:39:53.627Z,95951.72
2022-08-27T16:42:20.997Z,95959.72
2022-08-27T16:44:48.117Z,95964.09
2022-08-27T16:47:15.595Z,95961.59
2022-08-27T16:50:01.437Z,95968.31
2022-08-27T16:52:29.156Z,95954.66
2022-08-27T16:54:57.077Z,95940.06
2022-08-27T16:57:24.095Z,95941.94
2022-08-27T16:59:51.468Z,95951.81
2022-08-27T17:02:32.784Z,95957.47
2022-08-27T17:05:17.302Z,95970.50
2022-08-27T17:07:49.293Z,95964.56
2022-08-27T17:10:18.712Z,95972.84
2022-08-27T17:12:48.061Z,95978.63
2022-08-27T17:15:17.099Z,95984.75
2022-08-27T17:17:45.316Z,96003.59
2022-08-27T17:20:13.025Z,96009.88
2022-08-27T17:22:40.106Z,96011.75
2022-08-27T17:25:07.884Z,96014.75
2022-08-27T17:27:36.035Z,96009.41
2022-08-27T17:30:02.891Z,96006.75
2022-08-27T17:32:35.047Z,96005.66
2022-08-27T17:35:06.109Z,96008.13
2022-08-27T17:37:34.755Z,96019.59
2022-08-27T17:40:02.084Z,96021.81
2022-08-27T17:42:29.865Z,96027.94
2022-08-27T17:44:57.507Z,96019.63
2022-08-27T17:47:25.257Z,96008.97
2022-08-27T17:49:52.504Z,96002.97
2022-08-27T17:52:20.507Z,96003.75
2022-08-27T17:54:54.398Z,96000.91
2022-08-27T17:57:27.876Z,96002.16
2022-08-27T17:59:59.441Z,96008.94
2022-08-27T18:02:37.016Z,96016.91
2022-08-27T18:05:05.965Z,96021.91
2022-08-27T18:07:35.663Z,96016.56
2022-08-27T18:10:07.176Z,96027.34
2022-08-27T18:12:34.233Z,96028.94
2022-08-27T18:15:20.484Z,96020.72
2022-08-27T18:17:48.882Z,96016.53
2022-08-27T18:20:22.391Z,96027.97
2022-08-27T18:22:50.148Z,96032.97
2022-08-27T18:25:19.962Z,96036.44
2022-08-27T18:27:50.144Z,96035.00
2022-08-27T18:30:18.136Z,96032.97
2022-08-27T18:32:45.446Z,96042.41
2022-08-27T18:35:33.088Z,96046.00
2022-08-27T18:38:00.895Z,96056.53
2022-08-27T18:40:35.004Z,96044.78
2022-08-27T18:43:03.506Z,96037.09
2022-08-27T18:45:30.565Z,96038.03
2022-08-27T18:48:00.286Z,96036.94
2022-08-27T18:50:27.782Z,96034.59
2022-08-27T18:52:56.857Z,96031.91
2022-08-27T18:55:26.023Z,96034.59
2022-08-27T18:57:53.157Z,96049.00
2022-08-27T19:00:20.865Z,96058.09
2022-08-27T19:02:52.550Z,96050.41
2022-08-27T19:05:29.446Z,96051.81
2022-08-27T19:07:58.675Z,96046.00
2022-08-27T19:10:26.293Z,96043.03
2022-08-27T19:12:54.086Z,96042.56
2022-08-27T19:15:21.239Z,96043.81
2022-08-27T19:17:53.498Z,96044.00
2022-08-27T19:20:20.800Z,96043.50
2022-08-27T19:22:48.835Z,96037.88
2022-08-27T19:25:16.937Z,96027.84
2022-08-27T19:27:45.183Z,96020.94
2022-08-27T19:30:14.145Z,96022.34
2022-08-27T19:32:41.311Z,96028.16
2022-08-27T19:35:08.926Z,96024.41
2022-08-27T19:37:40.175Z,96035.69
2022-08-27T19:40:09.394Z,96033.19
2022-08-27T19:42:36.547Z,96030.34
2022-08-27T19:45:04.326Z,96028.03
2022-08-27T19:47:31.465Z,96030.81
2022-08-27T19:49:58.685Z,96030.81
2022-08-27T19:52:25.926Z,96032.56
2022-08-27T19:55:12.686Z,96039.13
2022-08-27T19:57:40.248Z,96036.13
2022-08-27T20:00:09.256Z,96045.06
2022-08-27T20:02:39.587Z,96048.47
2022-08-27T20:05:17.946Z,96049.41
2022-08-27T20:07:46.882Z,96048.47
2022-08-27T20:10:14.125Z,96053.03
2022-08-27T20:12:43.729Z,96058.19
2022-08-27T20:15:11.246Z,96048.16
2022-08-27T20:17:38.375Z,96048.75
2022-08-27T20:20:06.508Z,96048.00
2022-08-27T20:22:33.597Z,96049.88
2022-08-27T20:25:00.825Z,96058.59
2022-08-27T20:27:28.635Z,96065.31
2022-08-27T20:29:55.756Z,96072.28
2022-08-27T20:32:27.929Z,96078.69
2022-08-27T20:34:57.545Z,96080.88
2022-08-27T20:37:24.588Z,96080.34
2022-08-27T20:39:52.785Z,96083.81
2022-08-27T20:42:20.215Z,96077.78
2022-08-27T20:44:47.786Z,96086.88
2022-08-27T20:47:17.000Z,96094.56
2022-08-27T20:49:44.812Z,96094.56
2022-08-27T20:52:13.183Z,96114.94
2022-08-27T20:54:40.916Z,96119.28
2022-08-27T20:57:09.045Z,96124.53
2022-08-27T20:59:54.955Z,96121.78
2022-08-27T21:02:25.981Z,96113.78
2022-08-27T21:04:53.455Z,96101.69
2022-08-27T21:07:22.003Z,96105.63
2022-08-27T21:09:56.857Z,96099.22
2022-08-27T21:12:29.165Z,96092.16
2022-08-27T21:14:58.042Z,96088.88
2022-08-27T21:17:29.816Z,96090.31
2022-08-27T21:19:57.389Z,96087.28
2022-08-27T21:22:25.235Z,96082.25
2022-08-27T21:24:53.033Z,96084.91
2022-08-27T21:27:21.944Z,96089.72
2022-08-27T21:29:49.545Z,96083.34
2022-08-27T21:32:17.365Z,96084.41
2022-08-27T21:34:44.805Z,96086.47
2022-08-27T21:37:13.906Z,96081.75
2022-08-27T21:39:42.704Z,96079.59
2022-08-27T21:42:10.984Z,96082.84
2022-08-27T21:44:38.536Z,96090.44
2022-08-27T21:47:06.022Z,96076.66
2022-08-27T21:49:33.688Z,96074.00
2022-08-27T21:52:03.695Z,96070.25
2022-08-27T21:54:32.336Z,96071.94
2022-08-27T21:57:00.823Z,96071.16
2022-08-27T21:59:27.816Z,96072.53
2022-08-27T22:02:00.528Z,96073.53
2022-08-27T22:04:30.701Z,96058.66
2022-08-27T22:06:59.817Z,96048.31
2022-08-27T22:09:27.854Z,96033.16
2022-08-27T22:11:55.077Z,96022.25
2022-08-27T22:14:22.323Z,96014.53
2022-08-27T22:16:50.152Z,96007.34
2022-08-27T22:19:18.254Z,96013.19
2022-08-27T22:21:46.105Z,96001.25
2022-08-27T22:24:13.474Z,95997.50
2022-08-27T22:26:40.485Z,95990.25
2022-08-27T22:29:08.306Z,95986.09
2022-08-27T22:31:35.976Z,95980.00
2022-08-27T22:34:03.725Z,95972.16
2022-08-27T22:36:30.988Z,95973.53
2022-08-27T22:39:03.420Z,95969.94
2022-08-27T22:41:32.638Z,95962.91
2022-08-27T22:44:00.451Z,95957.00
2022-08-27T22:46:27.808Z,95951.19
2022-08-27T22:48:54.805Z,95952.63
2022-08-27T22:51:21.984Z,95949.19
2022-08-27T22:53:49.045Z,95943.38
2022-08-27T22:56:16.275Z,95941.03
2022-08-27T22:58:45.963Z,95940.63
2022-08-27T23:01:18.925Z,95939.34
2022-08-27T23:03:46.021Z,95947.31
2022-08-27T23:06:13.051Z,95940.91
2022-08-27T23:08:40.639Z,95934.81
2022-08-27T23:11:07.742Z,95939.03
2022-08-27T23:13:34.976Z,95940.63
2022-08-27T23:16:06.280Z,95946.53
2022-08-27T23:18:33.755Z,95937.41
2022-08-27T23:21:02.154Z,95944.59
2022-08-27T23:23:30.720Z,95947.69
2022-08-27T23:26:17.176Z,95945.66
2022-08-27T23:28:45.054Z,95943.38
2022-08-27T23:31:13.224Z,95940.72
2022-08-27T23:33:40.954Z,95937.25
2022-08-27T23:36:08.635Z,95933.03
2022-08-27T23:38:36.095Z,95941.00
2022-08-27T23:41:03.134Z,95939.41
2022-08-27T23:43:30.475Z,95932.53
2022-08-27T23:45:57.703Z,95920.16
2022-08-27T23:48:24.978Z,95920.34
2022-08-27T23:50:52.295Z,95917.09
2022-08-27T23:53:19.454Z,95912.06
2022-08-27T23:55:46.536Z,95908.47
2022-08-27T23:58:13.848Z,95909.47
